Lachine, MI (49753)

3:04 AM EDT on August 28, 2016 (GMT -0400)
MesoWest | | Change Station

Elev 750 ft 45.07 °N, 83.72 °W | Updated 44 minutes ago

Overcast
Overcast
68 °F
Feels Like 68 °F
N
3
Wind Variable Wind from South
Gusts 5.0 mph

Today
High -- | Low -- °F
--% Chance of Precip.
Yesterday
High -- | Low -- °F
Precip. -- in
Pressure 30.07 in
Visibility 10.0 miles
Clouds Few 5500 ft
Scattered Clouds 7000 ft
Overcast 8000 ft
Dew Point 65 °F
Humidity 89%
Rainfall in
Snow Depth Not available.
6:52 AM 8:18 PM
Waning Crescent, 18% visible
METAR KAPN 280654Z AUTO 20006KT 10SM FEW055 SCT070 OVC080 21/19 A3007 RMK AO2 SLP181 T02060189
Pressure 30.07 in
Visibility 10.0 miles
Clouds Few 5500 ft
Scattered Clouds 7000 ft
Overcast 8000 ft
Dew Point 65 °F
Humidity 89%
Rainfall in
Snow Depth Not available.
6:52 AM 8:18 PM
Waning Crescent, 18% visible
METAR KAPN 280654Z AUTO 20006KT 10SM FEW055 SCT070 OVC080 21/19 A3007 RMK AO2 SLP181 T02060189

10-Day Weather Forecast

Almanac

Astronomy

Aug. 28, 2016 Rise Set
Actual Time
Civil Twilight
Nautical Twilight
Astronomical Twilight
Moon
Length of Visible Light
Length of Day
Tomorrow will be .
, % of the Moon is Illuminated

Today's Extremes

State Highs State Lows

Community

WunderPhotos

Upload Photos

1,935,533 photos uploaded!

WunderBlog® & News

Nearby

Air Quality

  Air Quality AQ Index Pollutant
Not available.

Snow Depth

Station Depth Elevation

Earthquake Activity

City Distance Mag. Time & Date
Minimum magnitude displayed is 2.5.

Coastal Water Temperatures

Place Temperature

Stations

Nearby Weather Stations

Station Location Temp. Windchill Dew Point Humidity Wind Precip. Elev Updated Type
                   

Watches & Warnings

There are currently no watches in effect.